createdAt,value
2023-05-22T00:01:59.373Z,101326.75
2023-05-22T00:04:29.994Z,101320.56
2023-05-22T00:06:56.601Z,101326.25
2023-05-22T00:09:25.027Z,101319.25
2023-05-22T00:11:51.899Z,101324.59
2023-05-22T00:14:18.899Z,101315.41
2023-05-22T00:16:46.316Z,101321.09
2023-05-22T00:19:16.424Z,101307.09
2023-05-22T00:21:43.575Z,101308.28
2023-05-22T00:24:10.073Z,101312.44
2023-05-22T00:26:36.538Z,101315.75
2023-05-22T00:29:03.614Z,101313.78
2023-05-22T00:31:30.125Z,101313.13
2023-05-22T00:33:56.617Z,101317.81
2023-05-22T00:36:23.400Z,101313.31
2023-05-22T00:38:49.872Z,101303.09
2023-05-22T00:41:16.506Z,101299.25
2023-05-22T00:43:45.081Z,101299.78
2023-05-22T00:46:12.600Z,101302.09
2023-05-22T00:48:39.352Z,101299.94
2023-05-22T00:51:07.164Z,101290.41
2023-05-22T00:53:33.672Z,101296.75
2023-05-22T00:56:00.973Z,101298.44
2023-05-22T00:58:27.722Z,101296.94
2023-05-22T01:00:55.471Z,101293.41
2023-05-22T01:03:26.603Z,101301.78
2023-05-22T01:05:54.787Z,101288.09
2023-05-22T01:08:21.620Z,101284.59
2023-05-22T01:10:54.336Z,101289.75
2023-05-22T01:13:34.219Z,101288.56
2023-05-22T01:16:18.827Z,101297.28
2023-05-22T01:19:08.843Z,101296.44
2023-05-22T01:21:54.190Z,101290.75
2023-05-22T01:24:43.364Z,101297.78
2023-05-22T01:27:39.500Z,101296.09
2023-05-22T01:30:42.596Z,101293.09
2023-05-22T01:33:12.219Z,101295.28
2023-05-22T01:35:40.558Z,101282.94
2023-05-22T01:38:07.763Z,101285.94
2023-05-22T01:40:34.474Z,101283.25
2023-05-22T01:43:01.248Z,101288.94
2023-05-22T01:45:27.817Z,101291.91
2023-05-22T01:47:54.406Z,101290.41
2023-05-22T01:50:21.144Z,101289.06
2023-05-22T01:53:12.648Z,101286.88
2023-05-22T01:55:46.219Z,101292.72
2023-05-22T01:58:39.404Z,101285.53
2023-05-22T02:01:10.045Z,101290.34
2023-05-22T02:03:39.504Z,101291.03
2023-05-22T02:06:08.766Z,101293.88
2023-05-22T02:08:38.832Z,101292.03
2023-05-22T02:11:06.338Z,101293.00
2023-05-22T02:13:33.986Z,101292.03
2023-05-22T02:16:00.985Z,101286.50
2023-05-22T02:18:31.469Z,101287.97
2023-05-22T02:20:59.125Z,101287.00
2023-05-22T02:23:26.632Z,101294.47
2023-05-22T02:25:56.010Z,101288.75
2023-05-22T02:28:22.490Z,101284.78
2023-05-22T02:30:49.442Z,101280.09
2023-05-22T02:33:17.926Z,101281.09
2023-05-22T02:35:47.554Z,101276.50
2023-05-22T02:38:14.078Z,101283.91
2023-05-22T02:40:40.988Z,101274.00
2023-05-22T02:43:07.804Z,101277.00
2023-05-22T02:45:34.366Z,101277.63
2023-05-22T02:48:03.495Z,101281.41
2023-05-22T02:50:30.229Z,101275.56
2023-05-22T02:52:56.703Z,101275.06
2023-05-22T02:55:23.206Z,101275.56
2023-05-22T02:57:49.690Z,101270.44
2023-05-22T03:00:16.937Z,101264.16
2023-05-22T03:02:43.547Z,101268.53
2023-05-22T03:05:10.149Z,101261.63
2023-05-22T03:07:37.130Z,101267.41
2023-05-22T03:10:03.764Z,101261.22
2023-05-22T03:12:30.485Z,101251.22
2023-05-22T03:14:56.972Z,101256.44
2023-05-22T03:17:23.495Z,101252.09
2023-05-22T03:19:50.071Z,101249.91
2023-05-22T03:22:18.620Z,101248.75
2023-05-22T03:24:45.744Z,101248.03
2023-05-22T03:27:15.031Z,101248.22
2023-05-22T03:29:41.986Z,101247.69
2023-05-22T03:32:08.462Z,101250.41
2023-05-22T03:34:35.971Z,101246.09
2023-05-22T03:37:03.458Z,101245.28
2023-05-22T03:39:30.634Z,101253.75
2023-05-22T03:42:02.018Z,101253.53
2023-05-22T03:44:29.180Z,101251.94
2023-05-22T03:46:55.882Z,101255.16
2023-05-22T03:49:22.377Z,101260.94
2023-05-22T03:51:48.839Z,101255.16
2023-05-22T03:54:15.972Z,101245.44
2023-05-22T03:56:43.294Z,101253.97
2023-05-22T03:59:09.926Z,101249.28
2023-05-22T04:01:39.371Z,101251.63
2023-05-22T04:04:05.932Z,101249.75
2023-05-22T04:06:33.041Z,101250.13
2023-05-22T04:09:00.996Z,101254.44
2023-05-22T04:11:30.375Z,101248.16
2023-05-22T04:13:56.847Z,101247.84
2023-05-22T04:16:23.612Z,101248.03
2023-05-22T04:18:50.190Z,101252.88
2023-05-22T04:21:17.481Z,101259.69
2023-05-22T04:23:45.576Z,101245.53
2023-05-22T04:26:12.037Z,101259.56
2023-05-22T04:28:39.203Z,101248.09
2023-05-22T04:31:06.574Z,101257.09
2023-05-22T04:33:34.371Z,101253.25
2023-05-22T04:36:02.293Z,101252.34
2023-05-22T04:38:28.747Z,101251.59
2023-05-22T04:40:55.184Z,101249.16
2023-05-22T04:43:23.441Z,101253.25
2023-05-22T04:45:51.528Z,101248.66
2023-05-22T04:48:19.438Z,101248.66
2023-05-22T04:50:46.399Z,101251.19
2023-05-22T04:53:13.112Z,101254.31
2023-05-22T04:55:39.866Z,101250.81
2023-05-22T04:58:06.942Z,101246.31
2023-05-22T05:00:33.419Z,101249.34
2023-05-22T05:03:00.505Z,101246.63
2023-05-22T05:05:27.293Z,101238.38
2023-05-22T05:07:54.604Z,101236.72
2023-05-22T05:10:21.239Z,101240.22
2023-05-22T05:12:47.772Z,101240.53
2023-05-22T05:15:14.291Z,101237.38
2023-05-22T05:17:41.154Z,101237.03
2023-05-22T05:20:08.337Z,101236.56
2023-05-22T05:22:34.901Z,101238.88
2023-05-22T05:25:03.657Z,101240.25
2023-05-22T05:27:30.217Z,101244.25
2023-05-22T05:29:57.006Z,101243.53
2023-05-22T05:32:28.873Z,101243.16
2023-05-22T05:35:23.779Z,101250.91
2023-05-22T05:38:01.691Z,101246.75
2023-05-22T05:40:29.184Z,101250.28
2023-05-22T05:42:56.221Z,101254.16
2023-05-22T05:45:26.053Z,101256.50
2023-05-22T05:47:53.128Z,101261.72
2023-05-22T05:50:19.684Z,101266.69
2023-05-22T05:52:46.952Z,101262.84
2023-05-22T05:55:16.752Z,101267.84
2023-05-22T05:57:43.267Z,101262.53
2023-05-22T06:00:14.939Z,101259.00
2023-05-22T06:02:41.926Z,101255.81
2023-05-22T06:05:21.697Z,101257.13
2023-05-22T06:07:52.487Z,101262.47
2023-05-22T06:10:18.991Z,101252.28
2023-05-22T06:12:57.462Z,101252.19
2023-05-22T06:15:24.561Z,101250.16
2023-05-22T06:17:51.092Z,101250.88
2023-05-22T06:20:17.611Z,101248.13
2023-05-22T06:22:44.127Z,101240.97
2023-05-22T06:25:10.939Z,101249.19
2023-05-22T06:27:37.446Z,101244.91
2023-05-22T06:30:05.473Z,101241.38
2023-05-22T06:32:37.391Z,101248.50
2023-05-22T06:35:04.172Z,101250.59
2023-05-22T06:37:33.009Z,101243.44
2023-05-22T06:40:00.595Z,101248.22
2023-05-22T06:42:32.991Z,101241.28
2023-05-22T06:45:19.755Z,101242.59
2023-05-22T06:48:01.762Z,101241.28
2023-05-22T06:50:31.066Z,101234.06
2023-05-22T06:52:57.553Z,101241.00
2023-05-22T06:55:25.077Z,101238.22
2023-05-22T06:58:02.563Z,101241.34
2023-05-22T07:00:30.531Z,101237.94
2023-05-22T07:03:04.811Z,101243.22
2023-05-22T07:05:38.246Z,101240.28
2023-05-22T07:08:06.174Z,101233.44
2023-05-22T07:10:33.267Z,101238.16
2023-05-22T07:12:59.898Z,101241.44
2023-05-22T07:15:26.661Z,101237.44
2023-05-22T07:17:56.288Z,101238.97
2023-05-22T07:20:22.846Z,101242.41
2023-05-22T07:23:21.466Z,101242.97
2023-05-22T07:25:49.376Z,101238.97
2023-05-22T07:28:16.957Z,101239.13
2023-05-22T07:30:53.110Z,101237.56
2023-05-22T07:33:20.412Z,101230.59
2023-05-22T07:35:47.239Z,101232.97
2023-05-22T07:38:14.029Z,101232.06
2023-05-22T07:40:47.730Z,101230.19
2023-05-22T07:43:15.579Z,101220.63
2023-05-22T07:45:44.067Z,101231.22
2023-05-22T07:48:13.182Z,101233.25
2023-05-22T07:50:39.690Z,101225.34
2023-05-22T07:53:06.614Z,101231.84
2023-05-22T07:55:36.833Z,101230.66
2023-05-22T07:58:04.219Z,101231.16
2023-05-22T08:00:35.065Z,101228.38
2023-05-22T08:03:01.611Z,101235.00
2023-05-22T08:05:28.159Z,101237.34
2023-05-22T08:07:54.660Z,101231.00
2023-05-22T08:10:21.258Z,101231.81
2023-05-22T08:12:47.801Z,101228.88
2023-05-22T08:15:14.356Z,101228.28
2023-05-22T08:17:40.942Z,101229.69
2023-05-22T08:20:09.301Z,101224.72
2023-05-22T08:22:37.431Z,101228.50
2023-05-22T08:25:04.313Z,101228.56
2023-05-22T08:27:30.802Z,101221.13
2023-05-22T08:29:57.265Z,101222.34
2023-05-22T08:32:23.832Z,101224.09
2023-05-22T08:34:50.500Z,101217.16
2023-05-22T08:37:16.975Z,101221.88
2023-05-22T08:39:43.448Z,101207.41
2023-05-22T08:42:09.903Z,101212.72
2023-05-22T08:44:36.607Z,101204.22
2023-05-22T08:47:09.759Z,101206.84
2023-05-22T08:49:38.868Z,101203.13
2023-05-22T08:52:18.491Z,101202.94
2023-05-22T08:54:54.603Z,101202.44
2023-05-22T08:57:21.800Z,101198.25
2023-05-22T08:59:48.377Z,101187.53
2023-05-22T09:02:16.917Z,101188.28
2023-05-22T09:04:43.539Z,101182.06
2023-05-22T09:07:10.127Z,101184.19
2023-05-22T09:09:37.789Z,101182.50
2023-05-22T09:12:09.118Z,101180.41
2023-05-22T09:14:40.287Z,101182.69
2023-05-22T09:17:08.079Z,101178.19
2023-05-22T09:19:34.782Z,101178.06
2023-05-22T09:22:05.312Z,101174.56
2023-05-22T09:24:38.520Z,101179.69
2023-05-22T09:27:08.504Z,101179.94
2023-05-22T09:29:49.352Z,101175.72
2023-05-22T09:32:17.372Z,101175.09
2023-05-22T09:34:45.119Z,101171.84
2023-05-22T09:37:12.239Z,101164.66
2023-05-22T09:39:41.090Z,101170.19
2023-05-22T09:42:12.767Z,101164.16
2023-05-22T09:44:39.442Z,101165.06
2023-05-22T09:47:06.512Z,101163.69
2023-05-22T09:49:43.327Z,101165.88
2023-05-22T09:52:12.423Z,101158.16
2023-05-22T09:54:47.614Z,101162.53
2023-05-22T09:57:20.720Z,101163.59
2023-05-22T09:59:54.524Z,101162.94
2023-05-22T10:02:25.623Z,101156.13
2023-05-22T10:04:53.340Z,101152.84
2023-05-22T10:07:23.330Z,101154.06
2023-05-22T10:09:59.653Z,101149.16
2023-05-22T10:12:28.548Z,101148.19
2023-05-22T10:14:55.662Z,101144.63
2023-05-22T10:17:23.850Z,101150.00
2023-05-22T10:19:51.733Z,101144.28
2023-05-22T10:22:20.924Z,101145.00
2023-05-22T10:24:48.338Z,101142.78
2023-05-22T10:27:14.936Z,101144.28
2023-05-22T10:29:50.566Z,101136.81
2023-05-22T10:32:41.342Z,101143.31
2023-05-22T10:35:30.176Z,101134.50
2023-05-22T10:38:22.512Z,101126.38
2023-05-22T10:40:49.895Z,101126.31
2023-05-22T10:43:16.437Z,101122.03
2023-05-22T10:45:46.463Z,101117.78
2023-05-22T10:48:13.023Z,101111.81
2023-05-22T10:50:40.240Z,101115.69
2023-05-22T10:53:26.289Z,101112.41
2023-05-22T10:55:54.983Z,101104.09
2023-05-22T10:58:36.416Z,101103.34
2023-05-22T11:01:20.501Z,101097.03
2023-05-22T11:03:59.087Z,101097.69
2023-05-22T11:06:46.038Z,101092.88
2023-05-22T11:09:19.245Z,101095.53
2023-05-22T11:11:46.777Z,101086.25
2023-05-22T11:14:17.240Z,101083.16
2023-05-22T11:16:43.778Z,101096.06
2023-05-22T11:19:22.885Z,101085.28
2023-05-22T11:21:50.629Z,101091.09
2023-05-22T11:24:18.780Z,101088.16
2023-05-22T11:27:01.542Z,101094.72
2023-05-22T11:29:29.231Z,101078.69
2023-05-22T11:31:57.102Z,101090.94
2023-05-22T11:34:24.663Z,101080.44
2023-05-22T11:36:52.772Z,101073.03
2023-05-22T11:39:19.221Z,101075.44
2023-05-22T11:41:45.690Z,101074.97
2023-05-22T11:44:12.155Z,101081.78
2023-05-22T11:46:38.904Z,101070.13
2023-05-22T11:49:06.582Z,101069.88
2023-05-22T11:51:33.297Z,101074.22
2023-05-22T11:53:59.769Z,101074.66
2023-05-22T11:56:26.368Z,101078.16
2023-05-22T11:58:53.222Z,101064.66
2023-05-22T12:01:19.756Z,101062.66
2023-05-22T12:03:46.578Z,101059.41
2023-05-22T12:06:15.153Z,101058.06
2023-05-22T12:08:43.934Z,101058.16
2023-05-22T12:11:11.633Z,101053.63
2023-05-22T12:13:39.054Z,101054.72
2023-05-22T12:16:23.852Z,101047.22
2023-05-22T12:18:54.293Z,101039.16
2023-05-22T12:21:21.050Z,101030.28
2023-05-22T12:23:50.006Z,101043.72
2023-05-22T12:26:17.202Z,101044.91
2023-05-22T12:28:44.464Z,101036.28
2023-05-22T12:31:11.199Z,101032.97
2023-05-22T12:33:39.656Z,101032.00
2023-05-22T12:36:09.396Z,101042.97
2023-05-22T12:38:37.704Z,101041.84
2023-05-22T12:41:04.177Z,101042.06
2023-05-22T12:43:30.667Z,101044.19
2023-05-22T12:45:57.325Z,101038.19
2023-05-22T12:48:23.879Z,101033.56
2023-05-22T12:50:50.684Z,101038.06
2023-05-22T12:53:17.164Z,101032.91
2023-05-22T12:55:43.742Z,101033.22
2023-05-22T12:58:10.225Z,101031.25
2023-05-22T13:00:36.751Z,101032.41
2023-05-22T13:03:03.894Z,101026.22
2023-05-22T13:05:30.518Z,101024.50
2023-05-22T13:07:57.046Z,101025.44
2023-05-22T13:10:23.569Z,101013.78
2023-05-22T13:12:51.602Z,101021.34
2023-05-22T13:15:18.618Z,101010.38
2023-05-22T13:17:45.723Z,101012.66
2023-05-22T13:20:13.070Z,101016.41
2023-05-22T13:22:40.184Z,101017.34
2023-05-22T13:25:06.841Z,101012.41
2023-05-22T13:27:34.036Z,101004.84
2023-05-22T13:30:00.656Z,101002.84
2023-05-22T13:32:27.197Z,101010.50
2023-05-22T13:34:53.715Z,101005.84
2023-05-22T13:37:20.628Z,101012.06
2023-05-22T13:39:47.116Z,101004.28
2023-05-22T13:42:13.612Z,101007.94
2023-05-22T13:44:40.052Z,100999.00
2023-05-22T13:47:06.669Z,100990.59
2023-05-22T13:49:33.157Z,100995.75
2023-05-22T13:51:59.676Z,100994.59
2023-05-22T13:54:26.580Z,100998.63
2023-05-22T13:56:53.069Z,100991.78
2023-05-22T13:59:19.531Z,100984.94
2023-05-22T14:01:45.975Z,100982.63
2023-05-22T14:04:12.434Z,100976.31
2023-05-22T14:06:38.935Z,100976.50
2023-05-22T14:09:07.250Z,100966.97
2023-05-22T14:11:33.964Z,100970.75
2023-05-22T14:14:00.585Z,100971.16
2023-05-22T14:16:27.094Z,100965.97
2023-05-22T14:18:53.586Z,100971.09
2023-05-22T14:21:20.071Z,100974.09
2023-05-22T14:23:46.617Z,100972.38
2023-05-22T14:26:14.378Z,100972.03
2023-05-22T14:28:41.365Z,100970.00
2023-05-22T14:31:07.890Z,100969.75
2023-05-22T14:33:35.720Z,100962.66
2023-05-22T14:36:02.566Z,100957.38
2023-05-22T14:38:32.952Z,100952.50
2023-05-22T14:41:00.322Z,100953.56
2023-05-22T14:43:26.962Z,100953.41
2023-05-22T14:45:54.208Z,100950.53
2023-05-22T14:48:25.886Z,100944.56
2023-05-22T14:50:55.466Z,100938.72
2023-05-22T14:53:22.203Z,100935.84
2023-05-22T14:55:48.733Z,100940.34
2023-05-22T14:58:15.248Z,100933.97
2023-05-22T15:00:46.130Z,100930.16
2023-05-22T15:03:12.828Z,100926.38
2023-05-22T15:05:39.606Z,100927.09
2023-05-22T15:08:06.219Z,100921.31
2023-05-22T15:10:32.735Z,100914.75
2023-05-22T15:12:59.186Z,100921.22
2023-05-22T15:15:25.713Z,100915.47
2023-05-22T15:17:52.227Z,100913.88
2023-05-22T15:20:18.752Z,100913.06
2023-05-22T15:22:45.432Z,100904.78
2023-05-22T15:25:14.889Z,100903.78
2023-05-22T15:27:42.558Z,100899.53
2023-05-22T15:30:09.941Z,100903.69
2023-05-22T15:32:37.297Z,100900.84
2023-05-22T15:35:05.555Z,100899.84
2023-05-22T15:37:33.660Z,100898.78
2023-05-22T15:40:01.834Z,100886.53
2023-05-22T15:42:28.634Z,100889.03
2023-05-22T15:44:55.317Z,100879.72
2023-05-22T15:47:21.815Z,100875.19
2023-05-22T15:49:48.271Z,100871.34
2023-05-22T15:52:14.747Z,100875.66
2023-05-22T15:54:41.209Z,100874.97
2023-05-22T15:57:07.667Z,100872.41
2023-05-22T15:59:34.140Z,100867.31
2023-05-22T16:02:00.599Z,100875.56
2023-05-22T16:04:27.042Z,100864.72
2023-05-22T16:06:53.617Z,100854.09
2023-05-22T16:09:20.183Z,100866.56
2023-05-22T16:11:46.653Z,100854.34
2023-05-22T16:14:13.459Z,100857.38
2023-05-22T16:16:40.053Z,100857.28
2023-05-22T16:19:06.570Z,100855.94
2023-05-22T16:21:33.077Z,100845.53
2023-05-22T16:23:59.610Z,100854.81
2023-05-22T16:26:26.845Z,100852.78
2023-05-22T16:28:53.349Z,100854.28
2023-05-22T16:31:20.002Z,100847.06
2023-05-22T16:33:46.554Z,100857.50
2023-05-22T16:36:13.051Z,100857.34
2023-05-22T16:38:39.523Z,100855.84
2023-05-22T16:41:06.002Z,100853.50
2023-05-22T16:43:32.481Z,100855.78
2023-05-22T16:45:58.931Z,100862.63
2023-05-22T16:48:25.468Z,100861.81
2023-05-22T16:50:51.930Z,100854.53
2023-05-22T16:53:18.380Z,100856.97
2023-05-22T16:55:44.826Z,100846.13
2023-05-22T16:58:12.660Z,100854.63
2023-05-22T17:00:40.135Z,100850.28
2023-05-22T17:03:08.094Z,100856.44
2023-05-22T17:05:35.765Z,100861.56
2023-05-22T17:08:02.215Z,100860.00
2023-05-22T17:10:28.809Z,100857.78
2023-05-22T17:12:55.336Z,100854.63
2023-05-22T17:15:21.813Z,100857.50
2023-05-22T17:17:48.316Z,100859.44
2023-05-22T17:20:14.805Z,100848.69
2023-05-22T17:22:42.358Z,100853.63
2023-05-22T17:25:09.239Z,100857.41
2023-05-22T17:27:36.779Z,100844.56
2023-05-22T17:30:04.812Z,100848.47
2023-05-22T17:32:31.362Z,100839.06
2023-05-22T17:34:57.933Z,100843.25
2023-05-22T17:37:24.386Z,100842.25
2023-05-22T17:39:51.910Z,100844.31
2023-05-22T17:42:18.373Z,100838.63
2023-05-22T17:44:45.019Z,100832.50
2023-05-22T17:47:13.246Z,100831.38
2023-05-22T17:49:39.812Z,100831.94
2023-05-22T17:52:08.412Z,100830.06
2023-05-22T17:54:35.453Z,100836.44
2023-05-22T17:57:03.997Z,100831.81
2023-05-22T17:59:32.319Z,100836.91
2023-05-22T18:01:58.930Z,100836.06
2023-05-22T18:04:25.508Z,100827.63
2023-05-22T18:06:52.192Z,100834.22
2023-05-22T18:09:18.656Z,100828.09
2023-05-22T18:11:45.126Z,100835.56
2023-05-22T18:14:11.608Z,100836.69
2023-05-22T18:16:38.097Z,100830.47
2023-05-22T18:19:04.634Z,100832.00
2023-05-22T18:21:32.239Z,100829.13
2023-05-22T18:23:58.746Z,100831.16
2023-05-22T18:26:26.668Z,100830.94
2023-05-22T18:28:53.212Z,100834.63
2023-05-22T18:31:19.753Z,100833.41
2023-05-22T18:33:46.576Z,100829.66
2023-05-22T18:36:13.226Z,100822.78
2023-05-22T18:38:39.658Z,100826.03
2023-05-22T18:41:06.589Z,100826.78
2023-05-22T18:43:33.218Z,100820.66
2023-05-22T18:45:59.698Z,100824.31
2023-05-22T18:48:28.111Z,100823.50
2023-05-22T18:50:57.239Z,100816.13
2023-05-22T18:53:25.149Z,100820.91
2023-05-22T18:55:52.369Z,100821.88
2023-05-22T18:58:18.855Z,100827.69
2023-05-22T19:00:45.673Z,100826.66
2023-05-22T19:03:12.327Z,100830.56
2023-05-22T19:05:38.805Z,100828.97
2023-05-22T19:08:05.716Z,100833.41
2023-05-22T19:10:33.060Z,100834.88
2023-05-22T19:12:59.542Z,100838.00
2023-05-22T19:15:26.098Z,100842.44
2023-05-22T19:17:52.741Z,100851.91
2023-05-22T19:20:19.278Z,100846.75
2023-05-22T19:22:45.732Z,100846.72
2023-05-22T19:25:12.182Z,100851.81
2023-05-22T19:27:39.423Z,100847.81
2023-05-22T19:30:06.739Z,100850.84
2023-05-22T19:32:33.233Z,100853.16
2023-05-22T19:34:59.748Z,100859.72
2023-05-22T19:37:26.210Z,100856.91
2023-05-22T19:39:53.874Z,100853.72
2023-05-22T19:42:20.319Z,100859.50
2023-05-22T19:44:47.073Z,100860.34
2023-05-22T19:47:13.559Z,100863.91
2023-05-22T19:49:40.040Z,100866.28
2023-05-22T19:52:06.654Z,100861.31
2023-05-22T19:54:33.152Z,100861.00
2023-05-22T19:56:59.636Z,100861.59
2023-05-22T19:59:26.832Z,100858.97
2023-05-22T20:01:53.879Z,100857.34
2023-05-22T20:04:21.433Z,100861.38
2023-05-22T20:06:48.447Z,100857.84
2023-05-22T20:09:15.372Z,100870.34
2023-05-22T20:11:41.834Z,100868.22
2023-05-22T20:14:08.362Z,100877.13
2023-05-22T20:16:34.968Z,100869.03
2023-05-22T20:19:02.503Z,100874.16
2023-05-22T20:21:29.056Z,100868.94
2023-05-22T20:23:55.630Z,100874.84
2023-05-22T20:26:22.176Z,100870.72
2023-05-22T20:28:48.705Z,100878.09
2023-05-22T20:31:15.208Z,100872.75
2023-05-22T20:33:41.872Z,100869.66
2023-05-22T20:36:08.651Z,100860.53
2023-05-22T20:38:35.148Z,100857.72
2023-05-22T20:41:02.566Z,100861.88
2023-05-22T20:43:30.686Z,100855.25
2023-05-22T20:45:57.462Z,100858.66
2023-05-22T20:48:24.095Z,100857.47
2023-05-22T20:50:50.679Z,100851.09
2023-05-22T20:53:17.593Z,100855.47
2023-05-22T20:55:44.099Z,100861.41
2023-05-22T20:58:10.586Z,100853.78
2023-05-22T21:00:37.052Z,100852.38
2023-05-22T21:03:03.670Z,100854.25
2023-05-22T21:05:30.251Z,100860.25
2023-05-22T21:07:57.790Z,100861.34
2023-05-22T21:10:24.278Z,100863.00
2023-05-22T21:12:50.782Z,100866.00
2023-05-22T21:15:17.248Z,100859.44
2023-05-22T21:17:43.832Z,100864.66
2023-05-22T21:20:10.664Z,100872.22
2023-05-22T21:22:37.113Z,100868.78
2023-05-22T21:25:03.782Z,100871.16
2023-05-22T21:27:30.310Z,100863.28
2023-05-22T21:29:56.792Z,100868.56
2023-05-22T21:32:23.259Z,100871.88
2023-05-22T21:34:49.792Z,100856.97
2023-05-22T21:37:16.248Z,100866.69
2023-05-22T21:39:42.715Z,100852.97
2023-05-22T21:42:09.341Z,100859.69
2023-05-22T21:44:35.974Z,100857.59
2023-05-22T21:47:02.535Z,100856.50
2023-05-22T21:49:29.130Z,100856.50
2023-05-22T21:51:55.896Z,100856.34
2023-05-22T21:54:22.343Z,100852.97
2023-05-22T21:56:48.787Z,100848.69
2023-05-22T21:59:15.263Z,100853.34
2023-05-22T22:01:43.445Z,100848.78
2023-05-22T22:04:10.048Z,100855.69
2023-05-22T22:06:36.945Z,100847.94
2023-05-22T22:09:03.851Z,100855.91
2023-05-22T22:11:30.349Z,100845.34
2023-05-22T22:13:56.812Z,100848.78
2023-05-22T22:16:23.530Z,100846.19
2023-05-22T22:18:50.327Z,100848.19
2023-05-22T22:21:26.374Z,100850.34
2023-05-22T22:23:52.837Z,100847.03
2023-05-22T22:26:19.301Z,100846.06
2023-05-22T22:28:46.264Z,100846.69
2023-05-22T22:31:12.714Z,100836.00
2023-05-22T22:33:39.189Z,100833.88
2023-05-22T22:36:05.836Z,100824.38
2023-05-22T22:38:32.952Z,100826.38
2023-05-22T22:41:00.172Z,100822.84
2023-05-22T22:43:26.713Z,100817.94
2023-05-22T22:45:54.197Z,100816.91
2023-05-22T22:48:22.389Z,100818.28
2023-05-22T22:50:49.377Z,100806.66
2023-05-22T22:53:15.850Z,100812.06
2023-05-22T22:55:42.657Z,100806.16
2023-05-22T22:58:09.572Z,100811.22
2023-05-22T23:00:39.172Z,100813.56
2023-05-22T23:03:05.691Z,100816.91
2023-05-22T23:05:32.312Z,100798.34
2023-05-22T23:08:01.875Z,100812.28
2023-05-22T23:10:28.919Z,100792.97
2023-05-22T23:12:55.895Z,100790.16
2023-05-22T23:15:22.806Z,100786.81
2023-05-22T23:17:51.586Z,100791.78
2023-05-22T23:20:18.379Z,100784.94
2023-05-22T23:22:44.813Z,100787.13
2023-05-22T23:25:11.254Z,100782.19
2023-05-22T23:27:37.727Z,100780.88
2023-05-22T23:30:04.972Z,100780.06
2023-05-22T23:32:31.613Z,100774.84
2023-05-22T23:34:58.099Z,100768.69
2023-05-22T23:37:24.575Z,100770.22
2023-05-22T23:39:51.129Z,100771.13
2023-05-22T23:42:17.667Z,100764.38
2023-05-22T23:44:44.117Z,100763.22
2023-05-22T23:47:10.697Z,100749.72
2023-05-22T23:49:37.216Z,100750.28
2023-05-22T23:52:03.797Z,100745.31
2023-05-22T23:54:30.245Z,100747.22
2023-05-22T23:56:56.685Z,100740.59
2023-05-22T23:59:23.151Z,100738.31
